Mackinac Island, MI

9:25 AM EDT on April 22, 2018 (GMT -0400)
Mackinac Island

Weather History for KMCD - November, 2012

Change the Weather History Date:

Thursday, November 22, 2012

  Actual Average Record
Temperature  
Mean Temperature 54 °F -  
Max Temperature 63 °F 38 °F 63 °F (2012)
Min Temperature 46 °F 29 °F 10 °F (1987)
Degree Days  
Heating Degree Days 10    
Growing Degree Days 4 (Base 50)    
Moisture  
Dew Point 36 °F    
Average Humidity 51    
Maximum Humidity 72    
Minimum Humidity 31    
Precipitation  
Precipitation 0.00 in - - ()
Sea Level Pressure  
Sea Level Pressure 29.76 in    
Wind  
Wind Speed 10 mph (SSW)    
Max Wind Speed 18 mph    
Max Gust Speed 34 mph    
Visibility 10 miles    
Events      
Averages and records for this station are not official NWS values.
T = Trace of Precipitation, MM = Missing Value Source: NWS Daily Summary

Daily Weather History Graph

Daily Weather History Graph

Search for Another Location

Airport or City:

Astronomy

Nov. 22, 2012 Rise Set
Actual Time 7:48 AM EST 5:00 PM EST
Civil Twilight 7:15 AM EST 5:33 PM EST
Nautical Twilight 6:39 AM EST 6:10 PM EST
Astronomical Twilight 6:03 AM EST 6:45 PM EST
Moon 2:00 PM EST 1:51 AM EST
Length of Visible Light 10h 17m
Length of Day
9h 11m
Waxing Gibbous, 71% of the Moon is Illuminated
Nov 22
Waxing Gibbous
Nov 28
Full
Dec 6
Last Quarter
Dec 13
New
Dec 20
First Quarter

Hourly Weather History & Observations

Time (EST) Temp. Dew Point Humidity Pressure Visibility Wind Dir Wind Speed Gust Speed Precip Events Conditions
12:16 AM 47.3 °F 34.2 °F 60% 29.95 in 10.0 mi SSW 6.9 mph - N/A   Clear
12:36 AM 47.3 °F 34.7 °F 62% 29.94 in 10.0 mi SSW 5.8 mph - N/A   Clear
12:55 AM 47.8 °F 35.4 °F 62% 29.94 in 10.0 mi SSW 6.9 mph - N/A   Clear
1:16 AM 48.2 °F 36.5 °F 64% 29.94 in 10.0 mi SW 10.4 mph - N/A   Clear
1:36 AM 48.2 °F 36.7 °F 64% 29.93 in 10.0 mi South 6.9 mph - N/A   Clear
1:56 AM 47.7 °F 37.0 °F 67% 29.93 in 10.0 mi SSW 6.9 mph - N/A   Clear
2:16 AM 47.3 °F 37.4 °F 68% 29.93 in 10.0 mi South 8.1 mph - N/A   Clear
2:36 AM 47.3 °F 37.0 °F 68% 29.92 in 10.0 mi South 8.1 mph - N/A   Clear
2:56 AM 46.9 °F 37.6 °F 70% 29.92 in 10.0 mi South 8.1 mph - N/A   Clear
3:16 AM 46.8 °F 38.1 °F 72% 29.92 in 10.0 mi South 8.1 mph - N/A   Clear
3:36 AM 47.3 °F 37.9 °F 70% 29.91 in 10.0 mi South 8.1 mph - N/A   Clear
3:55 AM 47.5 °F 38.3 °F 70% 29.91 in 10.0 mi South 6.9 mph - N/A   Clear
4:16 AM 48.2 °F 38.7 °F 70% 29.90 in 10.0 mi South 6.9 mph - N/A   Clear
4:36 AM 48.7 °F 39.2 °F 70% 29.89 in 10.0 mi SSW 8.1 mph - N/A   Clear
4:55 AM 48.4 °F 39.2 °F 71% 29.89 in 10.0 mi SSW 5.8 mph - N/A   Clear
5:16 AM 49.1 °F 38.8 °F 68% 29.89 in 10.0 mi SSW 8.1 mph - N/A   Clear
5:36 AM 48.6 °F 38.7 °F 69% 29.88 in 10.0 mi SSW 6.9 mph - N/A   Clear
5:55 AM 48.6 °F 38.7 °F 69% 29.88 in 10.0 mi SSW 9.2 mph - N/A   Clear
6:16 AM 48.7 °F 38.5 °F 68% 29.87 in 10.0 mi South 10.4 mph 16.1 mph N/A   Clear
6:36 AM 49.3 °F 37.8 °F 65% 29.86 in 10.0 mi SSW 10.4 mph 18.4 mph N/A   Clear
6:55 AM 49.6 °F 37.4 °F 63% 29.86 in 10.0 mi SSW 10.4 mph 16.1 mph N/A   Clear
7:16 AM 49.8 °F 37.2 °F 62% 29.85 in 10.0 mi SSW 10.4 mph 16.1 mph N/A   Clear
7:35 AM 49.8 °F 37.0 °F 61% 29.85 in 10.0 mi SSW 10.4 mph - N/A   Clear
7:56 AM 49.6 °F 37.0 °F 62% 29.84 in 10.0 mi South 10.4 mph 16.1 mph N/A   Clear
8:16 AM 50.2 °F 36.7 °F 60% 29.84 in 10.0 mi South 13.8 mph 20.7 mph N/A   Clear
8:35 AM 50.9 °F 36.5 °F 58% 29.83 in 10.0 mi South 11.5 mph 18.4 mph N/A   Clear
8:56 AM 51.8 °F 35.6 °F 54% 29.83 in 10.0 mi SSW 12.7 mph 20.7 mph N/A   Clear
9:16 AM 52.5 °F 35.1 °F 51% 29.82 in 10.0 mi South 12.7 mph 18.4 mph N/A   Clear
9:35 AM 53.1 °F 35.1 °F 50% 29.82 in 10.0 mi SSW 13.8 mph 20.7 mph N/A   Clear
9:56 AM 53.6 °F 34.3 °F 48% 29.81 in 10.0 mi SSW 13.8 mph 18.4 mph N/A   Clear
10:16 AM 53.8 °F 34.0 °F 47% 29.80 in 10.0 mi SSW 12.7 mph 23.0 mph N/A   Clear
10:35 AM 55.2 °F 33.4 °F 44% 29.80 in 10.0 mi SSW 11.5 mph 20.7 mph N/A   Clear
10:56 AM 57.2 °F 33.3 °F 40% 29.80 in 10.0 mi SSW 11.5 mph 17.3 mph N/A   Clear
11:16 AM 59.2 °F 32.7 °F 37% 29.79 in 10.0 mi SSW 16.1 mph 23.0 mph N/A   Clear
11:35 AM 60.3 °F 32.5 °F 35% 29.77 in 10.0 mi SSW 13.8 mph 24.2 mph N/A   Clear
11:56 AM 61.7 °F 32.2 °F 33% 29.76 in 10.0 mi SSW 13.8 mph 29.9 mph N/A   Clear
12:16 PM 62.6 °F 31.6 °F 31% 29.75 in 10.0 mi SSW 16.1 mph 28.8 mph N/A   Clear
12:36 PM 62.2 °F 31.8 °F 32% 29.74 in 10.0 mi SSW 18.4 mph 27.6 mph N/A   Clear
12:56 PM 62.6 °F 32.0 °F 32% 29.73 in 10.0 mi SSW 16.1 mph 24.2 mph N/A   Clear
1:16 PM 62.4 °F 32.0 °F 32% 29.72 in 10.0 mi SSW 17.3 mph 26.5 mph N/A   Clear
1:36 PM 62.6 °F 32.0 °F 32% 29.71 in 10.0 mi SSW 15.0 mph 25.3 mph N/A   Clear
1:56 PM 63.3 °F 32.0 °F 31% 29.70 in 10.0 mi SSW 15.0 mph 26.5 mph N/A   Clear
2:16 PM 63.5 °F 32.2 °F 31% 29.70 in 10.0 mi SSW 17.3 mph 26.5 mph N/A   Clear
2:36 PM 63.0 °F 32.7 °F 32% 29.69 in 10.0 mi SSW 15.0 mph 23.0 mph N/A   Clear
2:56 PM 63.7 °F 32.5 °F 31% 29.68 in 10.0 mi SSW 13.8 mph 24.2 mph N/A   Clear
3:16 PM 63.7 °F 32.7 °F 31% 29.67 in 10.0 mi SSW 13.8 mph 21.9 mph N/A   Mostly Cloudy
3:36 PM 63.9 °F 32.7 °F 31% 29.67 in 10.0 mi SSW 10.4 mph 20.7 mph N/A   Mostly Cloudy
3:56 PM 63.1 °F 32.9 °F 32% 29.66 in 10.0 mi SSW 15.0 mph 25.3 mph N/A   Scattered Clouds
4:16 PM 62.6 °F 32.9 °F 33% 29.66 in 10.0 mi SSW 15.0 mph 20.7 mph N/A   Clear
4:36 PM 61.9 °F 33.1 °F 34% 29.66 in 10.0 mi SSW 6.9 mph 16.1 mph N/A   Clear
4:56 PM 60.3 °F 34.0 °F 37% 29.66 in 10.0 mi SSW 10.4 mph - N/A   Clear
5:16 PM 61.7 °F 33.8 °F 35% 29.66 in 10.0 mi SSW 10.4 mph - N/A   Mostly Cloudy
5:36 PM 60.6 °F 34.5 °F 38% 29.66 in 10.0 mi SSW 8.1 mph - N/A   Overcast
5:56 PM 60.6 °F 34.5 °F 38% 29.66 in 10.0 mi SSW 10.4 mph 19.6 mph N/A   Overcast
6:16 PM 60.3 °F 34.7 °F 38% 29.65 in 10.0 mi SSW 10.4 mph - N/A   Overcast
6:36 PM 59.9 °F 34.7 °F 39% 29.65 in 10.0 mi SSW 8.1 mph 16.1 mph N/A   Overcast
6:56 PM 59.5 °F 34.9 °F 40% 29.64 in 10.0 mi South 8.1 mph 16.1 mph N/A   Overcast
7:36 PM 58.5 °F 36.7 °F 44% 29.63 in 10.0 mi SSW 11.5 mph 17.3 mph N/A   Overcast
7:56 PM 58.5 °F 37.8 °F 46% 29.63 in 10.0 mi SW 17.3 mph 25.3 mph N/A   Overcast
8:15 PM 58.1 °F 38.7 °F 48% 29.63 in 10.0 mi SW 18.4 mph 34.5 mph N/A   Overcast
8:56 PM 57.7 °F 40.1 °F 52% 29.60 in 10.0 mi SW 18.4 mph 29.9 mph N/A   Overcast
9:15 PM 57.6 °F 40.6 °F 53% 29.60 in 10.0 mi SSW 18.4 mph 28.8 mph N/A   Overcast
9:36 PM 57.2 °F 41.2 °F 55% 29.59 in 10.0 mi SSW 15.0 mph 28.8 mph N/A   Overcast
9:56 PM 56.8 °F 41.5 °F 57% 29.58 in 10.0 mi SW 15.0 mph 27.6 mph N/A   Overcast
10:15 PM 56.7 °F 41.9 °F 58% 29.57 in 10.0 mi SSW 15.0 mph 26.5 mph N/A   Overcast
10:36 PM 56.5 °F 42.1 °F 59% 29.57 in 10.0 mi SSW 15.0 mph 26.5 mph N/A   Overcast
10:56 PM 56.5 °F 42.4 °F 59% 29.55 in 10.0 mi SSW 13.8 mph 26.5 mph N/A   Overcast
11:15 PM 56.5 °F 42.8 °F 60% 29.54 in 10.0 mi SSW 13.8 mph 25.3 mph N/A   Overcast
11:36 PM 56.1 °F 43.0 °F 61% 29.53 in 10.0 mi SSW 12.7 mph 23.0 mph N/A   Overcast
11:56 PM 56.1 °F 43.3 °F 62% 29.52 in 10.0 mi SSW 10.4 mph 20.7 mph N/A   Overcast